sensor_id;sensor_type;location;lat;lon;timestamp;P1;durP1;ratioP1;P2;durP2;ratioP2
84474;SDS011;74699;43.068;0.152;2024-01-25T00:01:19;1.73;;;0.68;;
84474;SDS011;74699;43.068;0.152;2024-01-25T00:03:45;1.73;;;0.75;;
84474;SDS011;74699;43.068;0.152;2024-01-25T00:06:11;2.05;;;0.60;;
84474;SDS011;74699;43.068;0.152;2024-01-25T00:08:37;3.55;;;0.95;;
84474;SDS011;74699;43.068;0.152;2024-01-25T00:11:04;1.33;;;0.40;;
84474;SDS011;74699;43.068;0.152;2024-01-25T00:13:30;1.42;;;0.60;;
84474;SDS011;74699;43.068;0.152;2024-01-25T00:15:56;1.67;;;0.50;;
84474;SDS011;74699;43.068;0.152;2024-01-25T00:18:22;1.83;;;0.70;;
84474;SDS011;74699;43.068;0.152;2024-01-25T00:20:49;1.38;;;0.80;;
84474;SDS011;74699;43.068;0.152;2024-01-25T00:23:15;1.63;;;0.40;;
84474;SDS011;74699;43.068;0.152;2024-01-25T00:25:41;2.13;;;0.60;;
84474;SDS011;74699;43.068;0.152;2024-01-25T00:28:07;1.65;;;0.55;;
84474;SDS011;74699;43.068;0.152;2024-01-25T00:30:33;1.38;;;0.50;;
84474;SDS011;74699;43.068;0.152;2024-01-25T00:32:59;1.48;;;0.60;;
84474;SDS011;74699;43.068;0.152;2024-01-25T00:35:26;1.00;;;0.47;;
84474;SDS011;74699;43.068;0.152;2024-01-25T00:37:52;2.28;;;0.60;;
84474;SDS011;74699;43.068;0.152;2024-01-25T00:40:19;1.13;;;0.40;;
84474;SDS011;74699;43.068;0.152;2024-01-25T00:42:45;2.00;;;1.15;;
84474;SDS011;74699;43.068;0.152;2024-01-25T00:45:21;1.52;;;0.70;;
84474;SDS011;74699;43.068;0.152;2024-01-25T00:47:48;1.58;;;0.50;;
84474;SDS011;74699;43.068;0.152;2024-01-25T00:50:14;1.05;;;0.45;;
84474;SDS011;74699;43.068;0.152;2024-01-25T00:52:46;1.63;;;0.68;;
84474;SDS011;74699;43.068;0.152;2024-01-25T00:55:12;1.33;;;0.68;;
84474;SDS011;74699;43.068;0.152;2024-01-25T00:57:38;1.13;;;0.55;;
84474;SDS011;74699;43.068;0.152;2024-01-25T01:00:04;1.20;;;0.50;;
84474;SDS011;74699;43.068;0.152;2024-01-25T01:02:33;1.15;;;0.52;;
84474;SDS011;74699;43.068;0.152;2024-01-25T01:05:01;1.55;;;0.52;;
84474;SDS011;74699;43.068;0.152;2024-01-25T01:07:27;0.95;;;0.40;;
84474;SDS011;74699;43.068;0.152;2024-01-25T01:09:53;1.88;;;0.57;;
84474;SDS011;74699;43.068;0.152;2024-01-25T01:12:19;1.30;;;0.50;;
84474;SDS011;74699;43.068;0.152;2024-01-25T01:14:45;1.67;;;0.50;;
84474;SDS011;74699;43.068;0.152;2024-01-25T01:17:11;1.38;;;0.50;;
84474;SDS011;74699;43.068;0.152;2024-01-25T01:19:37;0.85;;;0.43;;
84474;SDS011;74699;43.068;0.152;2024-01-25T01:22:03;1.58;;;0.50;;
84474;SDS011;74699;43.068;0.152;2024-01-25T01:24:29;1.35;;;0.50;;
84474;SDS011;74699;43.068;0.152;2024-01-25T01:26:55;1.88;;;0.68;;
84474;SDS011;74699;43.068;0.152;2024-01-25T01:29:21;0.85;;;0.40;;
84474;SDS011;74699;43.068;0.152;2024-01-25T01:31:47;1.17;;;0.50;;
84474;SDS011;74699;43.068;0.152;2024-01-25T01:34:13;1.30;;;0.40;;
84474;SDS011;74699;43.068;0.152;2024-01-25T01:36:39;1.90;;;0.50;;
84474;SDS011;74699;43.068;0.152;2024-01-25T01:39:05;1.38;;;0.50;;
84474;SDS011;74699;43.068;0.152;2024-01-25T01:41:31;1.30;;;0.50;;
84474;SDS011;74699;43.068;0.152;2024-01-25T01:43:58;1.20;;;0.50;;
84474;SDS011;74699;43.068;0.152;2024-01-25T01:48:53;0.77;;;0.40;;
84474;SDS011;74699;43.068;0.152;2024-01-25T01:51:20;1.38;;;0.40;;
84474;SDS011;74699;43.068;0.152;2024-01-25T01:53:46;1.73;;;0.50;;
84474;SDS011;74699;43.068;0.152;2024-01-25T01:56:12;1.50;;;0.63;;
84474;SDS011;74699;43.068;0.152;2024-01-25T01:58:40;1.45;;;0.43;;
84474;SDS011;74699;43.068;0.152;2024-01-25T02:01:06;2.20;;;0.65;;
84474;SDS011;74699;43.068;0.152;2024-01-25T02:03:32;1.30;;;0.52;;
84474;SDS011;74699;43.068;0.152;2024-01-25T02:05:58;1.48;;;0.60;;
84474;SDS011;74699;43.068;0.152;2024-01-25T02:08:28;1.15;;;0.40;;
84474;SDS011;74699;43.068;0.152;2024-01-25T02:10:54;1.45;;;0.60;;
84474;SDS011;74699;43.068;0.152;2024-01-25T02:13:21;1.08;;;0.45;;
84474;SDS011;74699;43.068;0.152;2024-01-25T02:15:47;1.23;;;0.43;;
84474;SDS011;74699;43.068;0.152;2024-01-25T02:18:13;0.73;;;0.30;;
84474;SDS011;74699;43.068;0.152;2024-01-25T02:20:40;1.75;;;0.60;;
84474;SDS011;74699;43.068;0.152;2024-01-25T02:23:06;1.30;;;0.40;;
84474;SDS011;74699;43.068;0.152;2024-01-25T02:25:32;1.77;;;0.40;;
84474;SDS011;74699;43.068;0.152;2024-01-25T02:27:58;0.88;;;0.43;;
84474;SDS011;74699;43.068;0.152;2024-01-25T02:30:24;0.82;;;0.57;;
84474;SDS011;74699;43.068;0.152;2024-01-25T02:32:50;1.45;;;1.10;;
84474;SDS011;74699;43.068;0.152;2024-01-25T02:35:17;1.02;;;0.40;;
84474;SDS011;74699;43.068;0.152;2024-01-25T02:37:43;1.05;;;0.43;;
84474;SDS011;74699;43.068;0.152;2024-01-25T02:40:10;1.38;;;0.32;;
84474;SDS011;74699;43.068;0.152;2024-01-25T02:42:36;1.33;;;0.35;;
84474;SDS011;74699;43.068;0.152;2024-01-25T02:45:02;0.47;;;0.28;;
84474;SDS011;74699;43.068;0.152;2024-01-25T02:47:28;0.73;;;0.30;;
84474;SDS011;74699;43.068;0.152;2024-01-25T02:49:54;0.95;;;0.32;;
84474;SDS011;74699;43.068;0.152;2024-01-25T02:52:20;2.05;;;0.60;;
84474;SDS011;74699;43.068;0.152;2024-01-25T02:54:46;2.28;;;0.50;;
84474;SDS011;74699;43.068;0.152;2024-01-25T02:57:12;1.13;;;0.38;;
84474;SDS011;74699;43.068;0.152;2024-01-25T02:59:38;1.55;;;0.50;;
84474;SDS011;74699;43.068;0.152;2024-01-25T03:02:04;1.35;;;0.50;;
84474;SDS011;74699;43.068;0.152;2024-01-25T03:04:30;2.13;;;0.55;;
84474;SDS011;74699;43.068;0.152;2024-01-25T03:06:56;1.70;;;0.50;;
84474;SDS011;74699;43.068;0.152;2024-01-25T03:09:22;0.93;;;0.30;;
84474;SDS011;74699;43.068;0.152;2024-01-25T03:11:49;1.17;;;0.50;;
84474;SDS011;74699;43.068;0.152;2024-01-25T03:14:15;1.42;;;0.40;;
84474;SDS011;74699;43.068;0.152;2024-01-25T03:16:42;1.40;;;0.50;;
84474;SDS011;74699;43.068;0.152;2024-01-25T03:19:09;1.23;;;0.43;;
84474;SDS011;74699;43.068;0.152;2024-01-25T03:21:35;2.47;;;0.70;;
84474;SDS011;74699;43.068;0.152;2024-01-25T03:24:02;1.67;;;0.73;;
84474;SDS011;74699;43.068;0.152;2024-01-25T03:26:28;1.40;;;0.32;;
84474;SDS011;74699;43.068;0.152;2024-01-25T03:28:54;1.40;;;0.77;;
84474;SDS011;74699;43.068;0.152;2024-01-25T03:31:20;1.63;;;0.30;;
84474;SDS011;74699;43.068;0.152;2024-01-25T03:33:46;1.90;;;0.40;;
84474;SDS011;74699;43.068;0.152;2024-01-25T03:36:15;1.80;;;0.40;;
84474;SDS011;74699;43.068;0.152;2024-01-25T03:38:41;0.90;;;0.30;;
84474;SDS011;74699;43.068;0.152;2024-01-25T03:41:08;0.88;;;0.30;;
84474;SDS011;74699;43.068;0.152;2024-01-25T03:43:34;1.75;;;0.50;;
84474;SDS011;74699;43.068;0.152;2024-01-25T03:46:00;0.60;;;0.20;;
84474;SDS011;74699;43.068;0.152;2024-01-25T03:48:27;1.48;;;0.52;;
84474;SDS011;74699;43.068;0.152;2024-01-25T03:50:54;1.70;;;0.57;;
84474;SDS011;74699;43.068;0.152;2024-01-25T03:53:21;1.20;;;0.40;;
84474;SDS011;74699;43.068;0.152;2024-01-25T03:55:48;3.28;;;0.35;;
84474;SDS011;74699;43.068;0.152;2024-01-25T03:58:15;1.30;;;0.25;;
84474;SDS011;74699;43.068;0.152;2024-01-25T04:00:41;1.10;;;0.40;;
84474;SDS011;74699;43.068;0.152;2024-01-25T04:03:07;0.55;;;0.20;;
84474;SDS011;74699;43.068;0.152;2024-01-25T04:05:33;0.85;;;0.40;;
84474;SDS011;74699;43.068;0.152;2024-01-25T04:07:59;1.27;;;0.40;;
84474;SDS011;74699;43.068;0.152;2024-01-25T04:10:25;1.33;;;0.30;;
84474;SDS011;74699;43.068;0.152;2024-01-25T04:12:51;1.30;;;0.57;;
84474;SDS011;74699;43.068;0.152;2024-01-25T04:15:17;0.65;;;0.20;;
84474;SDS011;74699;43.068;0.152;2024-01-25T04:17:44;1.63;;;0.50;;
84474;SDS011;74699;43.068;0.152;2024-01-25T04:20:10;1.73;;;0.45;;
84474;SDS011;74699;43.068;0.152;2024-01-25T04:22:36;1.10;;;0.38;;
84474;SDS011;74699;43.068;0.152;2024-01-25T04:25:02;1.27;;;0.43;;
84474;SDS011;74699;43.068;0.152;2024-01-25T04:27:29;1.25;;;0.40;;
84474;SDS011;74699;43.068;0.152;2024-01-25T04:29:55;1.33;;;0.28;;
84474;SDS011;74699;43.068;0.152;2024-01-25T04:32:21;1.00;;;0.40;;
84474;SDS011;74699;43.068;0.152;2024-01-25T04:34:47;0.73;;;0.30;;
84474;SDS011;74699;43.068;0.152;2024-01-25T04:37:14;1.13;;;0.60;;
84474;SDS011;74699;43.068;0.152;2024-01-25T04:39:40;2.17;;;0.50;;
84474;SDS011;74699;43.068;0.152;2024-01-25T04:42:07;0.63;;;0.25;;
84474;SDS011;74699;43.068;0.152;2024-01-25T04:44:33;1.58;;;0.40;;
84474;SDS011;74699;43.068;0.152;2024-01-25T04:46:59;1.50;;;0.40;;
84474;SDS011;74699;43.068;0.152;2024-01-25T04:49:26;1.30;;;0.40;;
84474;SDS011;74699;43.068;0.152;2024-01-25T04:51:52;1.27;;;0.55;;
84474;SDS011;74699;43.068;0.152;2024-01-25T04:54:18;2.13;;;0.85;;
84474;SDS011;74699;43.068;0.152;2024-01-25T04:56:44;1.42;;;0.40;;
84474;SDS011;74699;43.068;0.152;2024-01-25T04:59:10;1.00;;;0.40;;
84474;SDS011;74699;43.068;0.152;2024-01-25T05:01:36;1.67;;;0.63;;
84474;SDS011;74699;43.068;0.152;2024-01-25T05:04:02;0.98;;;0.32;;
84474;SDS011;74699;43.068;0.152;2024-01-25T05:06:28;1.45;;;0.50;;
84474;SDS011;74699;43.068;0.152;2024-01-25T05:08:54;1.50;;;0.50;;
84474;SDS011;74699;43.068;0.152;2024-01-25T05:11:20;0.47;;;0.22;;
84474;SDS011;74699;43.068;0.152;2024-01-25T05:13:46;1.00;;;0.50;;
84474;SDS011;74699;43.068;0.152;2024-01-25T05:16:12;1.10;;;0.32;;
84474;SDS011;74699;43.068;0.152;2024-01-25T05:18:38;1.63;;;0.50;;
84474;SDS011;74699;43.068;0.152;2024-01-25T05:21:04;1.25;;;0.47;;
84474;SDS011;74699;43.068;0.152;2024-01-25T05:23:31;0.65;;;0.28;;
84474;SDS011;74699;43.068;0.152;2024-01-25T05:25:57;1.08;;;0.40;;
84474;SDS011;74699;43.068;0.152;2024-01-25T05:28:23;1.08;;;0.30;;
84474;SDS011;74699;43.068;0.152;2024-01-25T05:30:50;1.15;;;0.35;;
84474;SDS011;74699;43.068;0.152;2024-01-25T05:33:16;1.42;;;0.47;;
84474;SDS011;74699;43.068;0.152;2024-01-25T05:35:42;1.10;;;0.40;;
84474;SDS011;74699;43.068;0.152;2024-01-25T05:38:08;0.80;;;0.35;;
84474;SDS011;74699;43.068;0.152;2024-01-25T05:40:34;0.90;;;0.25;;
84474;SDS011;74699;43.068;0.152;2024-01-25T05:43:00;1.20;;;0.50;;
84474;SDS011;74699;43.068;0.152;2024-01-25T05:45:26;0.95;;;0.40;;
84474;SDS011;74699;43.068;0.152;2024-01-25T05:47:52;0.40;;;0.20;;
84474;SDS011;74699;43.068;0.152;2024-01-25T05:50:18;1.35;;;0.50;;
84474;SDS011;74699;43.068;0.152;2024-01-25T05:52:44;1.05;;;0.40;;
84474;SDS011;74699;43.068;0.152;2024-01-25T05:55:10;1.13;;;0.40;;
84474;SDS011;74699;43.068;0.152;2024-01-25T05:57:36;1.60;;;0.50;;
84474;SDS011;74699;43.068;0.152;2024-01-25T06:00:03;1.30;;;0.55;;
84474;SDS011;74699;43.068;0.152;2024-01-25T06:02:30;2.15;;;0.55;;
84474;SDS011;74699;43.068;0.152;2024-01-25T06:04:56;0.77;;;0.50;;
84474;SDS011;74699;43.068;0.152;2024-01-25T06:07:24;2.05;;;0.40;;
84474;SDS011;74699;43.068;0.152;2024-01-25T06:09:50;1.38;;;0.40;;
84474;SDS011;74699;43.068;0.152;2024-01-25T06:12:16;1.55;;;0.40;;
84474;SDS011;74699;43.068;0.152;2024-01-25T06:14:42;1.15;;;0.50;;
84474;SDS011;74699;43.068;0.152;2024-01-25T06:17:08;0.98;;;0.45;;
84474;SDS011;74699;43.068;0.152;2024-01-25T06:19:34;1.17;;;0.40;;
84474;SDS011;74699;43.068;0.152;2024-01-25T06:22:00;0.93;;;0.50;;
84474;SDS011;74699;43.068;0.152;2024-01-25T06:24:27;3.42;;;0.75;;
84474;SDS011;74699;43.068;0.152;2024-01-25T06:26:53;1.15;;;0.22;;
84474;SDS011;74699;43.068;0.152;2024-01-25T06:29:19;1.83;;;0.40;;
84474;SDS011;74699;43.068;0.152;2024-01-25T06:31:45;1.27;;;0.43;;
84474;SDS011;74699;43.068;0.152;2024-01-25T06:34:12;2.28;;;0.63;;
84474;SDS011;74699;43.068;0.152;2024-01-25T06:36:38;1.40;;;0.40;;
84474;SDS011;74699;43.068;0.152;2024-01-25T06:39:04;0.95;;;0.40;;
84474;SDS011;74699;43.068;0.152;2024-01-25T06:41:30;2.22;;;1.17;;
84474;SDS011;74699;43.068;0.152;2024-01-25T06:43:56;1.23;;;0.50;;
84474;SDS011;74699;43.068;0.152;2024-01-25T06:46:22;3.15;;;0.63;;
84474;SDS011;74699;43.068;0.152;2024-01-25T06:48:49;3.60;;;0.65;;
84474;SDS011;74699;43.068;0.152;2024-01-25T06:51:16;1.85;;;0.50;;
84474;SDS011;74699;43.068;0.152;2024-01-25T06:53:42;1.10;;;0.50;;
84474;SDS011;74699;43.068;0.152;2024-01-25T06:56:08;2.97;;;0.70;;
84474;SDS011;74699;43.068;0.152;2024-01-25T06:58:34;0.88;;;0.30;;
84474;SDS011;74699;43.068;0.152;2024-01-25T07:01:00;1.52;;;0.45;;
84474;SDS011;74699;43.068;0.152;2024-01-25T07:03:26;1.05;;;0.40;;
84474;SDS011;74699;43.068;0.152;2024-01-25T07:05:52;1.55;;;0.60;;
84474;SDS011;74699;43.068;0.152;2024-01-25T07:08:18;1.73;;;0.43;;
84474;SDS011;74699;43.068;0.152;2024-01-25T07:10:44;1.00;;;0.50;;
84474;SDS011;74699;43.068;0.152;2024-01-25T07:13:11;2.08;;;0.60;;
84474;SDS011;74699;43.068;0.152;2024-01-25T07:15:37;1.40;;;0.45;;
84474;SDS011;74699;43.068;0.152;2024-01-25T07:18:03;1.80;;;0.52;;
84474;SDS011;74699;43.068;0.152;2024-01-25T07:20:29;1.48;;;0.40;;
84474;SDS011;74699;43.068;0.152;2024-01-25T07:22:56;2.33;;;0.40;;
84474;SDS011;74699;43.068;0.152;2024-01-25T07:25:22;1.58;;;0.50;;
84474;SDS011;74699;43.068;0.152;2024-01-25T07:27:48;0.90;;;0.40;;
84474;SDS011;74699;43.068;0.152;2024-01-25T07:30:14;0.68;;;0.38;;
84474;SDS011;74699;43.068;0.152;2024-01-25T07:32:40;1.05;;;0.40;;
84474;SDS011;74699;43.068;0.152;2024-01-25T07:35:10;1.60;;;0.60;;
84474;SDS011;74699;43.068;0.152;2024-01-25T07:37:37;1.75;;;0.50;;
84474;SDS011;74699;43.068;0.152;2024-01-25T07:40:03;0.43;;;0.20;;
84474;SDS011;74699;43.068;0.152;2024-01-25T07:42:29;1.98;;;0.60;;
84474;SDS011;74699;43.068;0.152;2024-01-25T07:44:55;1.13;;;0.40;;
84474;SDS011;74699;43.068;0.152;2024-01-25T07:47:21;1.08;;;0.38;;
84474;SDS011;74699;43.068;0.152;2024-01-25T07:49:47;1.83;;;0.47;;
84474;SDS011;74699;43.068;0.152;2024-01-25T07:52:13;1.08;;;0.30;;
84474;SDS011;74699;43.068;0.152;2024-01-25T07:54:39;1.35;;;0.50;;
84474;SDS011;74699;43.068;0.152;2024-01-25T07:57:05;1.52;;;0.45;;
84474;SDS011;74699;43.068;0.152;2024-01-25T07:59:32;2.17;;;0.40;;
84474;SDS011;74699;43.068;0.152;2024-01-25T08:01:58;1.40;;;0.40;;
84474;SDS011;74699;43.068;0.152;2024-01-25T08:04:24;1.38;;;0.65;;
84474;SDS011;74699;43.068;0.152;2024-01-25T08:06:51;2.03;;;0.40;;
84474;SDS011;74699;43.068;0.152;2024-01-25T08:09:17;1.13;;;0.40;;
84474;SDS011;74699;43.068;0.152;2024-01-25T08:11:43;1.63;;;0.50;;
84474;SDS011;74699;43.068;0.152;2024-01-25T08:14:10;2.30;;;0.60;;
84474;SDS011;74699;43.068;0.152;2024-01-25T08:16:39;2.25;;;0.98;;
84474;SDS011;74699;43.068;0.152;2024-01-25T08:19:05;3.08;;;0.80;;
84474;SDS011;74699;43.068;0.152;2024-01-25T08:21:31;3.30;;;1.05;;
84474;SDS011;74699;43.068;0.152;2024-01-25T08:23:57;0.82;;;0.25;;
84474;SDS011;74699;43.068;0.152;2024-01-25T08:26:23;1.58;;;0.52;;
84474;SDS011;74699;43.068;0.152;2024-01-25T08:28:49;1.95;;;0.60;;
84474;SDS011;74699;43.068;0.152;2024-01-25T08:31:15;1.13;;;0.60;;
84474;SDS011;74699;43.068;0.152;2024-01-25T08:33:41;1.40;;;0.50;;
84474;SDS011;74699;43.068;0.152;2024-01-25T08:38:35;2.35;;;0.65;;
84474;SDS011;74699;43.068;0.152;2024-01-25T08:41:01;2.20;;;0.82;;
84474;SDS011;74699;43.068;0.152;2024-01-25T08:43:27;1.63;;;0.65;;
84474;SDS011;74699;43.068;0.152;2024-01-25T08:45:53;3.92;;;0.93;;
84474;SDS011;74699;43.068;0.152;2024-01-25T08:48:19;1.73;;;0.55;;
84474;SDS011;74699;43.068;0.152;2024-01-25T08:50:45;2.38;;;0.75;;
84474;SDS011;74699;43.068;0.152;2024-01-25T08:53:11;1.65;;;0.40;;
84474;SDS011;74699;43.068;0.152;2024-01-25T08:55:37;2.05;;;0.65;;
84474;SDS011;74699;43.068;0.152;2024-01-25T08:58:03;1.55;;;0.65;;
84474;SDS011;74699;43.068;0.152;2024-01-25T09:00:30;1.90;;;0.65;;
84474;SDS011;74699;43.068;0.152;2024-01-25T09:02:56;1.90;;;0.63;;
84474;SDS011;74699;43.068;0.152;2024-01-25T09:05:22;2.33;;;0.80;;
84474;SDS011;74699;43.068;0.152;2024-01-25T09:07:48;2.15;;;0.77;;
84474;SDS011;74699;43.068;0.152;2024-01-25T09:10:15;0.93;;;0.40;;
84474;SDS011;74699;43.068;0.152;2024-01-25T09:12:41;2.13;;;0.70;;
84474;SDS011;74699;43.068;0.152;2024-01-25T09:15:07;1.38;;;0.60;;
84474;SDS011;74699;43.068;0.152;2024-01-25T09:17:34;2.45;;;0.98;;
84474;SDS011;74699;43.068;0.152;2024-01-25T09:20:00;2.00;;;0.75;;
84474;SDS011;74699;43.068;0.152;2024-01-25T09:22:27;1.65;;;0.60;;
84474;SDS011;74699;43.068;0.152;2024-01-25T09:24:53;1.17;;;0.50;;
84474;SDS011;74699;43.068;0.152;2024-01-25T09:27:19;2.10;;;1.10;;
84474;SDS011;74699;43.068;0.152;2024-01-25T09:29:45;2.03;;;0.57;;
84474;SDS011;74699;43.068;0.152;2024-01-25T09:32:11;2.78;;;0.73;;
84474;SDS011;74699;43.068;0.152;2024-01-25T09:34:38;1.80;;;0.70;;
84474;SDS011;74699;43.068;0.152;2024-01-25T09:37:04;1.05;;;0.50;;
84474;SDS011;74699;43.068;0.152;2024-01-25T09:39:31;2.50;;;0.82;;
84474;SDS011;74699;43.068;0.152;2024-01-25T09:41:58;2.70;;;0.60;;
84474;SDS011;74699;43.068;0.152;2024-01-25T09:44:24;1.05;;;0.55;;
84474;SDS011;74699;43.068;0.152;2024-01-25T09:46:50;1.48;;;0.50;;
84474;SDS011;74699;43.068;0.152;2024-01-25T09:49:17;1.58;;;0.50;;
84474;SDS011;74699;43.068;0.152;2024-01-25T09:51:43;1.73;;;0.47;;
84474;SDS011;74699;43.068;0.152;2024-01-25T09:54:09;1.58;;;0.80;;
84474;SDS011;74699;43.068;0.152;2024-01-25T09:56:35;2.55;;;0.77;;
84474;SDS011;74699;43.068;0.152;2024-01-25T09:59:02;1.30;;;0.50;;
84474;SDS011;74699;43.068;0.152;2024-01-25T10:01:29;2.50;;;1.00;;
84474;SDS011;74699;43.068;0.152;2024-01-25T10:03:55;1.35;;;0.50;;
84474;SDS011;74699;43.068;0.152;2024-01-25T10:06:22;1.58;;;0.93;;
84474;SDS011;74699;43.068;0.152;2024-01-25T10:08:48;2.20;;;0.60;;
84474;SDS011;74699;43.068;0.152;2024-01-25T10:11:14;2.33;;;0.70;;
84474;SDS011;74699;43.068;0.152;2024-01-25T10:13:44;1.60;;;0.60;;
84474;SDS011;74699;43.068;0.152;2024-01-25T10:16:11;1.40;;;0.50;;
84474;SDS011;74699;43.068;0.152;2024-01-25T10:18:37;1.73;;;0.50;;
84474;SDS011;74699;43.068;0.152;2024-01-25T10:21:04;1.30;;;0.60;;
84474;SDS011;74699;43.068;0.152;2024-01-25T10:23:30;1.73;;;0.55;;
84474;SDS011;74699;43.068;0.152;2024-01-25T10:25:56;15.52;;;1.73;;
84474;SDS011;74699;43.068;0.152;2024-01-25T10:28:23;8.85;;;1.60;;
84474;SDS011;74699;43.068;0.152;2024-01-25T10:30:50;2.40;;;0.70;;
84474;SDS011;74699;43.068;0.152;2024-01-25T10:33:16;1.27;;;0.60;;
84474;SDS011;74699;43.068;0.152;2024-01-25T10:38:10;2.97;;;1.35;;
84474;SDS011;74699;43.068;0.152;2024-01-25T10:40:37;8.55;;;1.50;;
84474;SDS011;74699;43.068;0.152;2024-01-25T10:43:04;2.72;;;0.80;;
84474;SDS011;74699;43.068;0.152;2024-01-25T10:45:30;3.53;;;0.68;;
84474;SDS011;74699;43.068;0.152;2024-01-25T10:47:57;2.13;;;0.60;;
84474;SDS011;74699;43.068;0.152;2024-01-25T10:50:23;1.55;;;0.50;;
84474;SDS011;74699;43.068;0.152;2024-01-25T10:52:50;3.53;;;1.05;;
84474;SDS011;74699;43.068;0.152;2024-01-25T10:55:16;2.17;;;0.50;;
84474;SDS011;74699;43.068;0.152;2024-01-25T10:57:44;2.40;;;0.88;;
84474;SDS011;74699;43.068;0.152;2024-01-25T11:00:11;2.15;;;0.73;;
84474;SDS011;74699;43.068;0.152;2024-01-25T11:02:38;3.92;;;0.90;;
84474;SDS011;74699;43.068;0.152;2024-01-25T11:05:11;2.10;;;1.15;;
84474;SDS011;74699;43.068;0.152;2024-01-25T11:07:44;3.40;;;0.80;;
84474;SDS011;74699;43.068;0.152;2024-01-25T11:12:46;2.15;;;0.70;;
84474;SDS011;74699;43.068;0.152;2024-01-25T11:15:16;1.52;;;0.77;;
84474;SDS011;74699;43.068;0.152;2024-01-25T11:17:50;2.63;;;0.90;;
84474;SDS011;74699;43.068;0.152;2024-01-25T11:20:19;2.38;;;0.88;;
84474;SDS011;74699;43.068;0.152;2024-01-25T11:22:45;2.25;;;0.80;;
84474;SDS011;74699;43.068;0.152;2024-01-25T11:25:20;3.15;;;0.93;;
84474;SDS011;74699;43.068;0.152;2024-01-25T11:27:47;3.30;;;1.13;;
84474;SDS011;74699;43.068;0.152;2024-01-25T11:30:14;1.75;;;0.85;;
84474;SDS011;74699;43.068;0.152;2024-01-25T11:32:43;1.63;;;0.40;;
84474;SDS011;74699;43.068;0.152;2024-01-25T11:35:09;2.33;;;0.77;;
84474;SDS011;74699;43.068;0.152;2024-01-25T11:37:38;1.45;;;0.65;;
84474;SDS011;74699;43.068;0.152;2024-01-25T11:42:30;5.15;;;1.27;;
84474;SDS011;74699;43.068;0.152;2024-01-25T11:44:56;3.15;;;0.77;;
84474;SDS011;74699;43.068;0.152;2024-01-25T11:49:48;3.25;;;0.90;;
84474;SDS011;74699;43.068;0.152;2024-01-25T11:52:14;2.42;;;1.00;;
84474;SDS011;74699;43.068;0.152;2024-01-25T11:54:41;3.70;;;1.02;;
84474;SDS011;74699;43.068;0.152;2024-01-25T11:59:33;2.05;;;0.90;;
84474;SDS011;74699;43.068;0.152;2024-01-25T12:01:59;2.67;;;1.30;;
84474;SDS011;74699;43.068;0.152;2024-01-25T12:04:26;2.70;;;1.50;;
84474;SDS011;74699;43.068;0.152;2024-01-25T12:06:52;2.65;;;1.40;;
84474;SDS011;74699;43.068;0.152;2024-01-25T12:09:18;3.13;;;1.60;;
84474;SDS011;74699;43.068;0.152;2024-01-25T12:11:48;2.40;;;1.30;;
84474;SDS011;74699;43.068;0.152;2024-01-25T12:14:16;2.15;;;1.08;;
84474;SDS011;74699;43.068;0.152;2024-01-25T12:16:42;2.33;;;1.20;;
84474;SDS011;74699;43.068;0.152;2024-01-25T12:19:08;2.15;;;0.90;;
84474;SDS011;74699;43.068;0.152;2024-01-25T12:21:34;1.73;;;1.10;;
84474;SDS011;74699;43.068;0.152;2024-01-25T12:24:01;2.85;;;0.50;;
84474;SDS011;74699;43.068;0.152;2024-01-25T12:26:27;1.40;;;0.50;;
84474;SDS011;74699;43.068;0.152;2024-01-25T12:28:53;1.25;;;0.60;;
84474;SDS011;74699;43.068;0.152;2024-01-25T12:31:20;1.65;;;0.52;;
84474;SDS011;74699;43.068;0.152;2024-01-25T12:33:46;1.02;;;0.38;;
84474;SDS011;74699;43.068;0.152;2024-01-25T12:36:12;1.58;;;0.65;;
84474;SDS011;74699;43.068;0.152;2024-01-25T12:38:38;1.10;;;0.63;;
84474;SDS011;74699;43.068;0.152;2024-01-25T12:41:04;1.55;;;0.77;;
84474;SDS011;74699;43.068;0.152;2024-01-25T12:43:30;1.45;;;0.75;;
84474;SDS011;74699;43.068;0.152;2024-01-25T12:45:56;1.35;;;0.73;;
84474;SDS011;74699;43.068;0.152;2024-01-25T12:48:22;1.23;;;0.60;;
84474;SDS011;74699;43.068;0.152;2024-01-25T12:50:48;1.50;;;0.63;;
84474;SDS011;74699;43.068;0.152;2024-01-25T12:53:14;1.30;;;0.68;;
84474;SDS011;74699;43.068;0.152;2024-01-25T12:55:42;1.20;;;0.52;;
84474;SDS011;74699;43.068;0.152;2024-01-25T12:58:09;2.25;;;0.70;;
84474;SDS011;74699;43.068;0.152;2024-01-25T13:00:35;1.83;;;0.82;;
84474;SDS011;74699;43.068;0.152;2024-01-25T13:03:01;2.72;;;1.17;;
84474;SDS011;74699;43.068;0.152;2024-01-25T13:05:28;2.50;;;1.40;;
84474;SDS011;74699;43.068;0.152;2024-01-25T13:07:54;3.35;;;1.40;;
84474;SDS011;74699;43.068;0.152;2024-01-25T13:10:20;3.15;;;1.30;;
84474;SDS011;74699;43.068;0.152;2024-01-25T13:12:47;2.88;;;1.45;;
84474;SDS011;74699;43.068;0.152;2024-01-25T13:15:13;2.60;;;1.20;;
84474;SDS011;74699;43.068;0.152;2024-01-25T13:17:39;4.50;;;1.50;;
84474;SDS011;74699;43.068;0.152;2024-01-25T13:20:06;5.30;;;1.63;;
84474;SDS011;74699;43.068;0.152;2024-01-25T13:22:35;3.30;;;1.55;;
84474;SDS011;74699;43.068;0.152;2024-01-25T13:25:02;3.90;;;1.52;;
84474;SDS011;74699;43.068;0.152;2024-01-25T13:27:28;2.90;;;1.40;;
84474;SDS011;74699;43.068;0.152;2024-01-25T13:29:54;3.72;;;1.60;;
84474;SDS011;74699;43.068;0.152;2024-01-25T13:32:21;3.88;;;1.40;;
84474;SDS011;74699;43.068;0.152;2024-01-25T13:34:47;2.53;;;1.23;;
84474;SDS011;74699;43.068;0.152;2024-01-25T13:37:14;3.13;;;1.77;;
84474;SDS011;74699;43.068;0.152;2024-01-25T13:42:05;3.05;;;1.38;;
84474;SDS011;74699;43.068;0.152;2024-01-25T13:46:57;3.08;;;1.50;;
84474;SDS011;74699;43.068;0.152;2024-01-25T13:49:24;3.38;;;1.70;;
84474;SDS011;74699;43.068;0.152;2024-01-25T13:51:50;2.42;;;1.30;;
84474;SDS011;74699;43.068;0.152;2024-01-25T13:56:42;3.72;;;1.30;;
84474;SDS011;74699;43.068;0.152;2024-01-25T13:59:08;3.80;;;1.80;;
84474;SDS011;74699;43.068;0.152;2024-01-25T14:01:34;2.97;;;1.20;;
84474;SDS011;74699;43.068;0.152;2024-01-25T14:04:02;2.92;;;1.48;;
84474;SDS011;74699;43.068;0.152;2024-01-25T14:08:54;3.55;;;1.38;;
84474;SDS011;74699;43.068;0.152;2024-01-25T14:11:20;3.60;;;1.30;;
84474;SDS011;74699;43.068;0.152;2024-01-25T14:13:46;5.90;;;1.50;;
84474;SDS011;74699;43.068;0.152;2024-01-25T14:16:13;3.20;;;1.40;;
84474;SDS011;74699;43.068;0.152;2024-01-25T14:18:42;2.53;;;1.05;;
84474;SDS011;74699;43.068;0.152;2024-01-25T14:21:08;3.20;;;1.60;;
84474;SDS011;74699;43.068;0.152;2024-01-25T14:23:34;3.42;;;1.50;;
84474;SDS011;74699;43.068;0.152;2024-01-25T14:26:00;3.72;;;1.58;;
84474;SDS011;74699;43.068;0.152;2024-01-25T14:28:26;3.45;;;1.38;;
84474;SDS011;74699;43.068;0.152;2024-01-25T14:30:52;3.83;;;1.58;;
84474;SDS011;74699;43.068;0.152;2024-01-25T14:33:18;4.95;;;2.00;;
84474;SDS011;74699;43.068;0.152;2024-01-25T14:35:44;4.50;;;2.30;;
84474;SDS011;74699;43.068;0.152;2024-01-25T14:40:36;5.40;;;2.67;;
84474;SDS011;74699;43.068;0.152;2024-01-25T14:43:02;4.95;;;2.42;;
84474;SDS011;74699;43.068;0.152;2024-01-25T14:45:29;4.38;;;2.50;;
84474;SDS011;74699;43.068;0.152;2024-01-25T14:47:55;3.53;;;2.15;;
84474;SDS011;74699;43.068;0.152;2024-01-25T14:50:22;4.78;;;2.45;;
84474;SDS011;74699;43.068;0.152;2024-01-25T14:55:14;4.93;;;2.10;;
84474;SDS011;74699;43.068;0.152;2024-01-25T15:00:15;5.50;;;2.60;;
84474;SDS011;74699;43.068;0.152;2024-01-25T15:02:44;5.63;;;2.28;;
84474;SDS011;74699;43.068;0.152;2024-01-25T15:05:10;5.22;;;2.75;;
84474;SDS011;74699;43.068;0.152;2024-01-25T15:07:36;5.65;;;2.85;;
84474;SDS011;74699;43.068;0.152;2024-01-25T15:10:02;5.93;;;3.38;;
84474;SDS011;74699;43.068;0.152;2024-01-25T15:14:54;5.45;;;3.05;;
84474;SDS011;74699;43.068;0.152;2024-01-25T15:17:20;5.82;;;2.75;;
84474;SDS011;74699;43.068;0.152;2024-01-25T15:19:46;5.43;;;3.33;;